Thessalon, Canada
Current Conditions -  °F | °C
As of 7:14 PM on Friday 24 Oct 2014 (Local Time) from KDRM Reporting Station
Overcast Overcast  
Wind Chill: 50°   Ceiling: 1800
Heat Index: 50°   Visibility: 10mi
Dew Point: 48°   Wind: 0mph
Humidity: 92%   Direction: NA
Pressure: 29.91"   Gusts: NA
Location:  46.25°N, 83.55°W
Report Text: KDRM 242314Z AUTO 00000KT 10SM OVC018 10/09 A2991 RMK AO2 T01000088
Loading
Personal Weather Stations






























Interactive Weather Map
Tropical Storm Tracking
New forecast layout! Learn more

10-Day Weather Forecast

Advertisements
Track Severe Weather on mobile